sensor_id;sensor_type;location;lat;lon;timestamp;temperature;humidity
3256;DHT22;1640;48.504;9.224;2023-08-06T00:01:31;16.10;99.90
3256;DHT22;1640;48.504;9.224;2023-08-06T00:03:58;16.10;99.90
3256;DHT22;1640;48.504;9.224;2023-08-06T00:06:27;16.00;99.90
3256;DHT22;1640;48.504;9.224;2023-08-06T00:08:56;15.90;99.90
3256;DHT22;1640;48.504;9.224;2023-08-06T00:11:23;15.90;99.90
3256;DHT22;1640;48.504;9.224;2023-08-06T00:13:50;15.90;99.90
3256;DHT22;1640;48.504;9.224;2023-08-06T00:16:18;15.70;99.90
3256;DHT22;1640;48.504;9.224;2023-08-06T00:18:45;15.60;99.90
3256;DHT22;1640;48.504;9.224;2023-08-06T00:21:13;15.60;99.90
3256;DHT22;1640;48.504;9.224;2023-08-06T00:23:41;15.40;99.90
3256;DHT22;1640;48.504;9.224;2023-08-06T00:26:09;15.30;99.90
3256;DHT22;1640;48.504;9.224;2023-08-06T00:28:37;15.20;99.90
3256;DHT22;1640;48.504;9.224;2023-08-06T00:31:04;15.20;99.90
3256;DHT22;1640;48.504;9.224;2023-08-06T00:33:32;15.10;99.90
3256;DHT22;1640;48.504;9.224;2023-08-06T00:35:59;15.10;99.90
3256;DHT22;1640;48.504;9.224;2023-08-06T00:38:27;15.00;99.90
3256;DHT22;1640;48.504;9.224;2023-08-06T00:40:54;15.00;99.90
3256;DHT22;1640;48.504;9.224;2023-08-06T00:43:23;14.80;99.90
3256;DHT22;1640;48.504;9.224;2023-08-06T00:45:51;14.90;99.90
3256;DHT22;1640;48.504;9.224;2023-08-06T00:48:17;14.80;99.90
3256;DHT22;1640;48.504;9.224;2023-08-06T00:50:45;14.80;99.90
3256;DHT22;1640;48.504;9.224;2023-08-06T00:53:13;14.80;99.90
3256;DHT22;1640;48.504;9.224;2023-08-06T00:55:41;14.70;99.90
3256;DHT22;1640;48.504;9.224;2023-08-06T00:58:11;14.70;99.90
3256;DHT22;1640;48.504;9.224;2023-08-06T01:00:40;14.60;99.90
3256;DHT22;1640;48.504;9.224;2023-08-06T01:03:08;14.70;99.90
3256;DHT22;1640;48.504;9.224;2023-08-06T01:05:36;14.80;99.90
3256;DHT22;1640;48.504;9.224;2023-08-06T01:08:12;14.80;99.90
3256;DHT22;1640;48.504;9.224;2023-08-06T01:10:51;14.80;99.90
3256;DHT22;1640;48.504;9.224;2023-08-06T01:13:28;14.70;99.90
3256;DHT22;1640;48.504;9.224;2023-08-06T01:15:59;14.50;99.90
3256;DHT22;1640;48.504;9.224;2023-08-06T01:18:27;14.40;99.90
3256;DHT22;1640;48.504;9.224;2023-08-06T01:20:56;14.40;99.90
3256;DHT22;1640;48.504;9.224;2023-08-06T01:23:23;14.50;99.90
3256;DHT22;1640;48.504;9.224;2023-08-06T01:26:02;14.50;99.90
3256;DHT22;1640;48.504;9.224;2023-08-06T01:28:40;14.50;99.90
3256;DHT22;1640;48.504;9.224;2023-08-06T01:31:13;14.60;99.90
3256;DHT22;1640;48.504;9.224;2023-08-06T01:33:44;14.60;99.90
3256;DHT22;1640;48.504;9.224;2023-08-06T01:36:15;14.60;99.90
3256;DHT22;1640;48.504;9.224;2023-08-06T01:38:44;14.70;99.90
3256;DHT22;1640;48.504;9.224;2023-08-06T01:41:11;14.60;99.90
3256;DHT22;1640;48.504;9.224;2023-08-06T01:43:39;14.50;99.90
3256;DHT22;1640;48.504;9.224;2023-08-06T01:46:06;14.40;99.90
3256;DHT22;1640;48.504;9.224;2023-08-06T01:48:33;14.50;99.90
3256;DHT22;1640;48.504;9.224;2023-08-06T01:51:01;14.50;99.90
3256;DHT22;1640;48.504;9.224;2023-08-06T01:53:32;14.50;99.90
3256;DHT22;1640;48.504;9.224;2023-08-06T01:55:59;14.60;99.90
3256;DHT22;1640;48.504;9.224;2023-08-06T01:58:27;14.50;99.90
3256;DHT22;1640;48.504;9.224;2023-08-06T02:00:55;14.50;99.90
3256;DHT22;1640;48.504;9.224;2023-08-06T02:03:22;14.40;99.90
3256;DHT22;1640;48.504;9.224;2023-08-06T02:05:50;14.40;99.90
3256;DHT22;1640;48.504;9.224;2023-08-06T02:08:17;14.40;99.90
3256;DHT22;1640;48.504;9.224;2023-08-06T02:10:46;14.30;99.90
3256;DHT22;1640;48.504;9.224;2023-08-06T02:13:14;14.30;99.90
3256;DHT22;1640;48.504;9.224;2023-08-06T02:15:45;14.20;99.90
3256;DHT22;1640;48.504;9.224;2023-08-06T02:18:13;14.10;99.90
3256;DHT22;1640;48.504;9.224;2023-08-06T02:20:41;14.20;99.90
3256;DHT22;1640;48.504;9.224;2023-08-06T02:23:09;14.20;99.90
3256;DHT22;1640;48.504;9.224;2023-08-06T02:25:36;14.00;99.90
3256;DHT22;1640;48.504;9.224;2023-08-06T02:28:05;14.00;99.90
3256;DHT22;1640;48.504;9.224;2023-08-06T02:30:33;14.00;99.90
3256;DHT22;1640;48.504;9.224;2023-08-06T02:33:00;14.00;99.90
3256;DHT22;1640;48.504;9.224;2023-08-06T02:35:28;14.10;99.90
3256;DHT22;1640;48.504;9.224;2023-08-06T02:37:55;14.00;99.90
3256;DHT22;1640;48.504;9.224;2023-08-06T02:40:23;14.10;99.90
3256;DHT22;1640;48.504;9.224;2023-08-06T02:42:51;14.10;99.90
3256;DHT22;1640;48.504;9.224;2023-08-06T02:45:19;14.20;99.90
3256;DHT22;1640;48.504;9.224;2023-08-06T02:47:47;14.20;99.90
3256;DHT22;1640;48.504;9.224;2023-08-06T02:50:15;14.30;99.90
3256;DHT22;1640;48.504;9.224;2023-08-06T02:52:42;14.30;99.90
3256;DHT22;1640;48.504;9.224;2023-08-06T02:55:10;14.30;99.90
3256;DHT22;1640;48.504;9.224;2023-08-06T02:57:37;14.40;99.90
3256;DHT22;1640;48.504;9.224;2023-08-06T03:00:06;14.40;99.90
3256;DHT22;1640;48.504;9.224;2023-08-06T03:02:35;14.50;99.90
3256;DHT22;1640;48.504;9.224;2023-08-06T03:05:03;14.50;99.90
3256;DHT22;1640;48.504;9.224;2023-08-06T03:07:32;14.60;99.90
3256;DHT22;1640;48.504;9.224;2023-08-06T03:10:02;14.70;99.90
3256;DHT22;1640;48.504;9.224;2023-08-06T03:12:29;14.90;99.90
3256;DHT22;1640;48.504;9.224;2023-08-06T03:14:57;15.00;99.90
3256;DHT22;1640;48.504;9.224;2023-08-06T03:17:24;14.90;99.90
3256;DHT22;1640;48.504;9.224;2023-08-06T03:19:53;14.90;99.90
3256;DHT22;1640;48.504;9.224;2023-08-06T03:22:21;14.90;99.90
3256;DHT22;1640;48.504;9.224;2023-08-06T03:24:50;14.90;99.90
3256;DHT22;1640;48.504;9.224;2023-08-06T03:27:18;14.90;99.90
3256;DHT22;1640;48.504;9.224;2023-08-06T03:29:48;15.00;99.90
3256;DHT22;1640;48.504;9.224;2023-08-06T03:32:15;15.10;99.90
3256;DHT22;1640;48.504;9.224;2023-08-06T03:34:43;15.10;99.90
3256;DHT22;1640;48.504;9.224;2023-08-06T03:37:12;15.20;99.90
3256;DHT22;1640;48.504;9.224;2023-08-06T03:39:40;15.10;99.90
3256;DHT22;1640;48.504;9.224;2023-08-06T03:42:07;15.10;99.90
3256;DHT22;1640;48.504;9.224;2023-08-06T03:44:34;15.10;99.90
3256;DHT22;1640;48.504;9.224;2023-08-06T03:47:02;15.20;99.90
3256;DHT22;1640;48.504;9.224;2023-08-06T03:49:30;15.10;99.90
3256;DHT22;1640;48.504;9.224;2023-08-06T03:51:57;15.00;99.90
3256;DHT22;1640;48.504;9.224;2023-08-06T03:54:26;15.00;99.90
3256;DHT22;1640;48.504;9.224;2023-08-06T03:56:53;15.00;99.90
3256;DHT22;1640;48.504;9.224;2023-08-06T03:59:21;15.00;99.90
3256;DHT22;1640;48.504;9.224;2023-08-06T04:01:48;15.00;99.90
3256;DHT22;1640;48.504;9.224;2023-08-06T04:04:16;15.10;99.90
3256;DHT22;1640;48.504;9.224;2023-08-06T04:06:43;15.10;99.90
3256;DHT22;1640;48.504;9.224;2023-08-06T04:09:11;15.10;99.90
3256;DHT22;1640;48.504;9.224;2023-08-06T04:11:42;15.00;99.90
3256;DHT22;1640;48.504;9.224;2023-08-06T04:14:10;14.90;99.90
3256;DHT22;1640;48.504;9.224;2023-08-06T04:16:37;14.80;99.90
3256;DHT22;1640;48.504;9.224;2023-08-06T04:19:05;14.60;99.90
3256;DHT22;1640;48.504;9.224;2023-08-06T04:21:32;14.50;99.90
3256;DHT22;1640;48.504;9.224;2023-08-06T04:24:00;14.40;99.90
3256;DHT22;1640;48.504;9.224;2023-08-06T04:26:27;14.30;99.90
3256;DHT22;1640;48.504;9.224;2023-08-06T04:28:56;14.40;99.90
3256;DHT22;1640;48.504;9.224;2023-08-06T04:31:25;14.40;99.90
3256;DHT22;1640;48.504;9.224;2023-08-06T04:33:52;14.40;99.90
3256;DHT22;1640;48.504;9.224;2023-08-06T04:36:20;14.40;99.90
3256;DHT22;1640;48.504;9.224;2023-08-06T04:38:47;14.50;99.90
3256;DHT22;1640;48.504;9.224;2023-08-06T04:41:15;14.40;99.90
3256;DHT22;1640;48.504;9.224;2023-08-06T04:43:42;14.40;99.90
3256;DHT22;1640;48.504;9.224;2023-08-06T04:46:11;14.40;99.90
3256;DHT22;1640;48.504;9.224;2023-08-06T04:48:39;14.30;99.90
3256;DHT22;1640;48.504;9.224;2023-08-06T04:51:06;14.30;99.90
3256;DHT22;1640;48.504;9.224;2023-08-06T04:53:33;14.30;99.90
3256;DHT22;1640;48.504;9.224;2023-08-06T04:56:01;14.20;99.90
3256;DHT22;1640;48.504;9.224;2023-08-06T04:58:28;14.10;99.90
3256;DHT22;1640;48.504;9.224;2023-08-06T05:00:56;14.10;99.90
3256;DHT22;1640;48.504;9.224;2023-08-06T05:03:25;14.10;99.90
3256;DHT22;1640;48.504;9.224;2023-08-06T05:05:52;14.20;99.90
3256;DHT22;1640;48.504;9.224;2023-08-06T05:08:20;14.20;99.90
3256;DHT22;1640;48.504;9.224;2023-08-06T05:10:47;14.20;99.90
3256;DHT22;1640;48.504;9.224;2023-08-06T05:13:15;14.30;99.90
3256;DHT22;1640;48.504;9.224;2023-08-06T05:15:42;14.40;99.90
3256;DHT22;1640;48.504;9.224;2023-08-06T05:18:15;14.50;99.90
3256;DHT22;1640;48.504;9.224;2023-08-06T05:20:44;14.60;99.90
3256;DHT22;1640;48.504;9.224;2023-08-06T05:23:11;14.70;99.90
3256;DHT22;1640;48.504;9.224;2023-08-06T05:25:39;14.80;99.90
3256;DHT22;1640;48.504;9.224;2023-08-06T05:28:06;14.90;99.90
3256;DHT22;1640;48.504;9.224;2023-08-06T05:30:34;14.90;99.90
3256;DHT22;1640;48.504;9.224;2023-08-06T05:33:05;14.90;99.90
3256;DHT22;1640;48.504;9.224;2023-08-06T05:35:33;14.90;99.90
3256;DHT22;1640;48.504;9.224;2023-08-06T05:38:02;15.00;99.90
3256;DHT22;1640;48.504;9.224;2023-08-06T05:40:29;15.20;99.90
3256;DHT22;1640;48.504;9.224;2023-08-06T05:42:57;15.30;99.90
3256;DHT22;1640;48.504;9.224;2023-08-06T05:45:24;15.40;99.90
3256;DHT22;1640;48.504;9.224;2023-08-06T05:47:52;15.40;99.90
3256;DHT22;1640;48.504;9.224;2023-08-06T05:50:20;15.40;99.90
3256;DHT22;1640;48.504;9.224;2023-08-06T05:52:47;15.30;99.90
3256;DHT22;1640;48.504;9.224;2023-08-06T05:55:16;15.40;99.90
3256;DHT22;1640;48.504;9.224;2023-08-06T05:57:43;15.50;99.90
3256;DHT22;1640;48.504;9.224;2023-08-06T06:00:11;15.50;99.90
3256;DHT22;1640;48.504;9.224;2023-08-06T06:02:39;15.60;99.90
3256;DHT22;1640;48.504;9.224;2023-08-06T06:05:07;15.50;4.80
3256;DHT22;1640;48.504;9.224;2023-08-06T06:07:35;15.50;99.90
3256;DHT22;1640;48.504;9.224;2023-08-06T06:10:02;15.40;99.90
3256;DHT22;1640;48.504;9.224;2023-08-06T06:12:32;15.30;99.90
3256;DHT22;1640;48.504;9.224;2023-08-06T06:14:59;15.30;99.90
3256;DHT22;1640;48.504;9.224;2023-08-06T06:17:27;15.50;99.90
3256;DHT22;1640;48.504;9.224;2023-08-06T06:19:54;15.50;99.90
3256;DHT22;1640;48.504;9.224;2023-08-06T06:22:23;15.30;99.90
3256;DHT22;1640;48.504;9.224;2023-08-06T06:24:50;15.20;99.90
3256;DHT22;1640;48.504;9.224;2023-08-06T06:27:18;15.40;99.90
3256;DHT22;1640;48.504;9.224;2023-08-06T06:29:47;15.60;99.90
3256;DHT22;1640;48.504;9.224;2023-08-06T06:32:14;15.90;99.90
3256;DHT22;1640;48.504;9.224;2023-08-06T06:34:42;16.20;99.90
3256;DHT22;1640;48.504;9.224;2023-08-06T06:37:09;16.10;99.90
3256;DHT22;1640;48.504;9.224;2023-08-06T06:39:36;16.00;99.90
3256;DHT22;1640;48.504;9.224;2023-08-06T06:42:04;16.00;99.90
3256;DHT22;1640;48.504;9.224;2023-08-06T06:44:32;15.90;99.90
3256;DHT22;1640;48.504;9.224;2023-08-06T06:47:01;15.70;99.90
3256;DHT22;1640;48.504;9.224;2023-08-06T06:49:28;15.60;99.90
3256;DHT22;1640;48.504;9.224;2023-08-06T06:51:56;15.60;99.90
3256;DHT22;1640;48.504;9.224;2023-08-06T06:54:23;15.60;99.90
3256;DHT22;1640;48.504;9.224;2023-08-06T06:56:51;15.70;99.90
3256;DHT22;1640;48.504;9.224;2023-08-06T06:59:18;15.80;99.90
3256;DHT22;1640;48.504;9.224;2023-08-06T07:01:45;15.80;99.90
3256;DHT22;1640;48.504;9.224;2023-08-06T07:04:14;15.70;99.90
3256;DHT22;1640;48.504;9.224;2023-08-06T07:06:42;15.40;99.90
3256;DHT22;1640;48.504;9.224;2023-08-06T07:09:09;15.20;99.90
3256;DHT22;1640;48.504;9.224;2023-08-06T07:11:37;15.30;99.90
3256;DHT22;1640;48.504;9.224;2023-08-06T07:14:04;15.40;99.90
3256;DHT22;1640;48.504;9.224;2023-08-06T07:16:32;15.60;99.90
3256;DHT22;1640;48.504;9.224;2023-08-06T07:19:01;15.80;99.90
3256;DHT22;1640;48.504;9.224;2023-08-06T07:21:30;16.00;99.90
3256;DHT22;1640;48.504;9.224;2023-08-06T07:23:57;16.20;99.90
3256;DHT22;1640;48.504;9.224;2023-08-06T07:26:25;16.20;99.90
3256;DHT22;1640;48.504;9.224;2023-08-06T07:28:53;16.10;99.90
3256;DHT22;1640;48.504;9.224;2023-08-06T07:31:20;16.10;99.90
3256;DHT22;1640;48.504;9.224;2023-08-06T07:33:47;15.90;99.90
3256;DHT22;1640;48.504;9.224;2023-08-06T07:36:15;15.50;99.90
3256;DHT22;1640;48.504;9.224;2023-08-06T07:38:44;15.30;99.90
3256;DHT22;1640;48.504;9.224;2023-08-06T07:41:11;15.10;99.90
3256;DHT22;1640;48.504;9.224;2023-08-06T07:43:39;14.90;99.90
3256;DHT22;1640;48.504;9.224;2023-08-06T07:46:06;14.80;99.90
3256;DHT22;1640;48.504;9.224;2023-08-06T07:48:34;14.80;99.90
3256;DHT22;1640;48.504;9.224;2023-08-06T07:51:01;14.90;99.90
3256;DHT22;1640;48.504;9.224;2023-08-06T07:53:29;14.90;99.90
3256;DHT22;1640;48.504;9.224;2023-08-06T07:55:58;15.00;99.90
3256;DHT22;1640;48.504;9.224;2023-08-06T07:58:28;15.20;99.90
3256;DHT22;1640;48.504;9.224;2023-08-06T08:00:56;15.40;99.90
3256;DHT22;1640;48.504;9.224;2023-08-06T08:03:23;15.50;99.90
3256;DHT22;1640;48.504;9.224;2023-08-06T08:05:54;15.60;99.90
3256;DHT22;1640;48.504;9.224;2023-08-06T08:08:23;15.60;99.90
3256;DHT22;1640;48.504;9.224;2023-08-06T08:10:51;15.70;99.90
3256;DHT22;1640;48.504;9.224;2023-08-06T08:13:20;15.80;99.90
3256;DHT22;1640;48.504;9.224;2023-08-06T08:15:47;16.00;99.90
3256;DHT22;1640;48.504;9.224;2023-08-06T08:18:15;16.00;99.90
3256;DHT22;1640;48.504;9.224;2023-08-06T08:20:42;16.00;99.90
3256;DHT22;1640;48.504;9.224;2023-08-06T08:23:11;16.00;99.90
3256;DHT22;1640;48.504;9.224;2023-08-06T08:25:38;16.00;99.90
3256;DHT22;1640;48.504;9.224;2023-08-06T08:28:05;15.90;99.90
3256;DHT22;1640;48.504;9.224;2023-08-06T08:30:37;15.80;99.90
3256;DHT22;1640;48.504;9.224;2023-08-06T08:33:04;15.70;99.90
3256;DHT22;1640;48.504;9.224;2023-08-06T08:35:32;15.70;99.90
3256;DHT22;1640;48.504;9.224;2023-08-06T08:37:59;15.60;99.90
3256;DHT22;1640;48.504;9.224;2023-08-06T08:40:30;15.50;99.90
3256;DHT22;1640;48.504;9.224;2023-08-06T08:42:59;15.50;99.90
3256;DHT22;1640;48.504;9.224;2023-08-06T08:45:29;15.50;99.90
3256;DHT22;1640;48.504;9.224;2023-08-06T08:47:58;15.70;99.90
3256;DHT22;1640;48.504;9.224;2023-08-06T08:50:25;15.90;99.90
3256;DHT22;1640;48.504;9.224;2023-08-06T08:52:53;16.10;99.90
3256;DHT22;1640;48.504;9.224;2023-08-06T08:55:22;16.30;99.90
3256;DHT22;1640;48.504;9.224;2023-08-06T08:57:49;16.50;99.90
3256;DHT22;1640;48.504;9.224;2023-08-06T09:00:17;16.60;99.90
3256;DHT22;1640;48.504;9.224;2023-08-06T09:02:45;16.80;99.90
3256;DHT22;1640;48.504;9.224;2023-08-06T09:05:15;16.70;99.90
3256;DHT22;1640;48.504;9.224;2023-08-06T09:07:48;16.30;99.90
3256;DHT22;1640;48.504;9.224;2023-08-06T09:10:17;16.10;99.90
3256;DHT22;1640;48.504;9.224;2023-08-06T09:12:47;15.80;99.90
3256;DHT22;1640;48.504;9.224;2023-08-06T09:15:15;15.60;99.90
3256;DHT22;1640;48.504;9.224;2023-08-06T09:17:43;15.50;99.90
3256;DHT22;1640;48.504;9.224;2023-08-06T09:20:11;15.30;99.90
3256;DHT22;1640;48.504;9.224;2023-08-06T09:22:40;15.60;99.90
3256;DHT22;1640;48.504;9.224;2023-08-06T09:25:08;15.80;99.90
3256;DHT22;1640;48.504;9.224;2023-08-06T09:27:37;16.00;99.90
3256;DHT22;1640;48.504;9.224;2023-08-06T09:30:06;16.40;99.90
3256;DHT22;1640;48.504;9.224;2023-08-06T09:32:46;16.60;99.90
3256;DHT22;1640;48.504;9.224;2023-08-06T09:35:17;16.80;99.90
3256;DHT22;1640;48.504;9.224;2023-08-06T09:37:47;17.20;99.90
3256;DHT22;1640;48.504;9.224;2023-08-06T09:40:28;17.30;20.40
3256;DHT22;1640;48.504;9.224;2023-08-06T09:42:56;17.50;4.50
3256;DHT22;1640;48.504;9.224;2023-08-06T09:45:28;17.50;13.10
3256;DHT22;1640;48.504;9.224;2023-08-06T09:47:56;17.60;14.70
3256;DHT22;1640;48.504;9.224;2023-08-06T09:50:29;17.90;21.70
3256;DHT22;1640;48.504;9.224;2023-08-06T09:52:59;17.80;21.30
3256;DHT22;1640;48.504;9.224;2023-08-06T09:55:27;17.30;7.10
3256;DHT22;1640;48.504;9.224;2023-08-06T09:57:55;17.00;99.90
3256;DHT22;1640;48.504;9.224;2023-08-06T10:00:23;16.80;99.90
3256;DHT22;1640;48.504;9.224;2023-08-06T10:02:51;16.80;99.90
3256;DHT22;1640;48.504;9.224;2023-08-06T10:05:22;16.70;99.90
3256;DHT22;1640;48.504;9.224;2023-08-06T10:07:51;16.50;99.90
3256;DHT22;1640;48.504;9.224;2023-08-06T10:10:20;16.60;99.90
3256;DHT22;1640;48.504;9.224;2023-08-06T10:12:50;16.50;99.90
3256;DHT22;1640;48.504;9.224;2023-08-06T10:15:22;16.20;99.90
3256;DHT22;1640;48.504;9.224;2023-08-06T10:17:52;16.00;99.90
3256;DHT22;1640;48.504;9.224;2023-08-06T10:20:21;15.80;99.90
3256;DHT22;1640;48.504;9.224;2023-08-06T10:23:00;15.40;99.90
3256;DHT22;1640;48.504;9.224;2023-08-06T10:25:32;15.20;99.90
3256;DHT22;1640;48.504;9.224;2023-08-06T10:28:00;15.10;99.90
3256;DHT22;1640;48.504;9.224;2023-08-06T10:30:34;15.10;99.90
3256;DHT22;1640;48.504;9.224;2023-08-06T10:33:08;15.20;99.90
3256;DHT22;1640;48.504;9.224;2023-08-06T10:35:40;15.30;99.90
3256;DHT22;1640;48.504;9.224;2023-08-06T10:38:11;15.40;99.90
3256;DHT22;1640;48.504;9.224;2023-08-06T10:40:41;15.70;99.90
3256;DHT22;1640;48.504;9.224;2023-08-06T10:43:25;15.80;99.90
3256;DHT22;1640;48.504;9.224;2023-08-06T10:45:53;16.00;99.90
3256;DHT22;1640;48.504;9.224;2023-08-06T10:48:29;16.20;99.90
3256;DHT22;1640;48.504;9.224;2023-08-06T10:50:58;16.30;99.90
3256;DHT22;1640;48.504;9.224;2023-08-06T10:53:26;16.30;99.90
3256;DHT22;1640;48.504;9.224;2023-08-06T10:55:55;16.10;99.90
3256;DHT22;1640;48.504;9.224;2023-08-06T10:58:23;16.00;99.90
3256;DHT22;1640;48.504;9.224;2023-08-06T11:00:51;16.00;99.90
3256;DHT22;1640;48.504;9.224;2023-08-06T11:03:18;16.10;99.90
3256;DHT22;1640;48.504;9.224;2023-08-06T11:05:49;16.10;99.90
3256;DHT22;1640;48.504;9.224;2023-08-06T11:08:25;16.30;99.90
3256;DHT22;1640;48.504;9.224;2023-08-06T11:10:52;16.60;99.90
3256;DHT22;1640;48.504;9.224;2023-08-06T11:13:21;16.70;99.90
3256;DHT22;1640;48.504;9.224;2023-08-06T11:15:52;16.80;99.90
3256;DHT22;1640;48.504;9.224;2023-08-06T11:18:20;16.50;99.90
3256;DHT22;1640;48.504;9.224;2023-08-06T11:20:47;16.20;99.90
3256;DHT22;1640;48.504;9.224;2023-08-06T11:23:15;15.90;99.90
3256;DHT22;1640;48.504;9.224;2023-08-06T11:25:44;15.60;99.90
3256;DHT22;1640;48.504;9.224;2023-08-06T11:28:12;15.70;99.90
3256;DHT22;1640;48.504;9.224;2023-08-06T11:30:41;15.60;99.90
3256;DHT22;1640;48.504;9.224;2023-08-06T11:33:08;15.50;99.90
3256;DHT22;1640;48.504;9.224;2023-08-06T11:35:36;15.40;99.90
3256;DHT22;1640;48.504;9.224;2023-08-06T11:38:04;15.30;99.90
3256;DHT22;1640;48.504;9.224;2023-08-06T11:40:32;15.20;99.90
3256;DHT22;1640;48.504;9.224;2023-08-06T11:43:00;15.10;99.90
3256;DHT22;1640;48.504;9.224;2023-08-06T11:45:28;15.00;99.90
3256;DHT22;1640;48.504;9.224;2023-08-06T11:47:57;14.60;99.90
3256;DHT22;1640;48.504;9.224;2023-08-06T11:50:25;14.30;99.90
3256;DHT22;1640;48.504;9.224;2023-08-06T11:52:57;14.20;99.90
3256;DHT22;1640;48.504;9.224;2023-08-06T11:55:25;14.20;99.90
3256;DHT22;1640;48.504;9.224;2023-08-06T11:57:54;14.40;99.90
3256;DHT22;1640;48.504;9.224;2023-08-06T12:00:23;14.80;99.90
3256;DHT22;1640;48.504;9.224;2023-08-06T12:02:51;14.90;99.90
3256;DHT22;1640;48.504;9.224;2023-08-06T12:05:23;15.00;99.90
3256;DHT22;1640;48.504;9.224;2023-08-06T12:07:52;15.30;99.90
3256;DHT22;1640;48.504;9.224;2023-08-06T12:10:22;15.50;99.90
3256;DHT22;1640;48.504;9.224;2023-08-06T12:12:49;15.70;99.90
3256;DHT22;1640;48.504;9.224;2023-08-06T12:15:17;16.00;99.90
3256;DHT22;1640;48.504;9.224;2023-08-06T12:17:45;16.10;99.90
3256;DHT22;1640;48.504;9.224;2023-08-06T12:20:12;16.20;99.90
3256;DHT22;1640;48.504;9.224;2023-08-06T12:22:41;16.10;99.90
3256;DHT22;1640;48.504;9.224;2023-08-06T12:25:11;16.00;99.90
3256;DHT22;1640;48.504;9.224;2023-08-06T12:27:39;15.70;99.90
3256;DHT22;1640;48.504;9.224;2023-08-06T12:30:08;15.40;99.90
3256;DHT22;1640;48.504;9.224;2023-08-06T12:32:36;15.10;99.90
3256;DHT22;1640;48.504;9.224;2023-08-06T12:35:04;15.10;99.90
3256;DHT22;1640;48.504;9.224;2023-08-06T12:37:33;15.40;99.90
3256;DHT22;1640;48.504;9.224;2023-08-06T12:40:02;15.50;99.90
3256;DHT22;1640;48.504;9.224;2023-08-06T12:42:30;15.70;99.90
3256;DHT22;1640;48.504;9.224;2023-08-06T12:44:58;15.60;99.90
3256;DHT22;1640;48.504;9.224;2023-08-06T12:47:26;16.00;99.90
3256;DHT22;1640;48.504;9.224;2023-08-06T12:49:53;16.00;99.90
3256;DHT22;1640;48.504;9.224;2023-08-06T12:52:21;16.10;99.90
3256;DHT22;1640;48.504;9.224;2023-08-06T12:54:48;16.20;99.90
3256;DHT22;1640;48.504;9.224;2023-08-06T12:57:17;16.20;99.90
3256;DHT22;1640;48.504;9.224;2023-08-06T12:59:45;16.30;99.90
3256;DHT22;1640;48.504;9.224;2023-08-06T13:02:12;16.10;5.40
3256;DHT22;1640;48.504;9.224;2023-08-06T13:04:40;16.10;5.40
3256;DHT22;1640;48.504;9.224;2023-08-06T13:07:07;15.80;99.90
3256;DHT22;1640;48.504;9.224;2023-08-06T13:09:35;15.70;99.90
3256;DHT22;1640;48.504;9.224;2023-08-06T13:12:03;15.80;99.90
3256;DHT22;1640;48.504;9.224;2023-08-06T13:14:33;15.90;99.90
3256;DHT22;1640;48.504;9.224;2023-08-06T13:17:00;15.90;99.90
3256;DHT22;1640;48.504;9.224;2023-08-06T13:19:28;15.80;99.90
3256;DHT22;1640;48.504;9.224;2023-08-06T13:22:00;16.10;1.30
3256;DHT22;1640;48.504;9.224;2023-08-06T13:24:29;16.40;15.70
3256;DHT22;1640;48.504;9.224;2023-08-06T13:26:57;16.50;23.80
3256;DHT22;1640;48.504;9.224;2023-08-06T13:29:25;16.60;24.50
3256;DHT22;1640;48.504;9.224;2023-08-06T13:31:55;16.80;33.80
3256;DHT22;1640;48.504;9.224;2023-08-06T13:34:23;17.00;49.00
3256;DHT22;1640;48.504;9.224;2023-08-06T13:36:50;16.90;30.50
3256;DHT22;1640;48.504;9.224;2023-08-06T13:39:18;16.70;35.70
3256;DHT22;1640;48.504;9.224;2023-08-06T13:41:46;16.50;20.10
3256;DHT22;1640;48.504;9.224;2023-08-06T13:44:13;16.40;11.60
3256;DHT22;1640;48.504;9.224;2023-08-06T13:46:41;16.30;15.70
3256;DHT22;1640;48.504;9.224;2023-08-06T13:49:10;16.20;8.70
3256;DHT22;1640;48.504;9.224;2023-08-06T13:51:38;16.40;4.20
3256;DHT22;1640;48.504;9.224;2023-08-06T13:54:05;16.30;11.80
3256;DHT22;1640;48.504;9.224;2023-08-06T13:56:34;16.30;21.10
3256;DHT22;1640;48.504;9.224;2023-08-06T13:59:03;16.40;20.30
3256;DHT22;1640;48.504;9.224;2023-08-06T14:01:31;16.50;16.20
3256;DHT22;1640;48.504;9.224;2023-08-06T14:03:58;16.50;16.40
3256;DHT22;1640;48.504;9.224;2023-08-06T14:06:27;16.70;8.50
3256;DHT22;1640;48.504;9.224;2023-08-06T14:08:55;17.00;19.50
3256;DHT22;1640;48.504;9.224;2023-08-06T14:11:22;17.30;30.80
3256;DHT22;1640;48.504;9.224;2023-08-06T14:13:50;17.30;37.30
3256;DHT22;1640;48.504;9.224;2023-08-06T14:16:17;17.40;26.10
3256;DHT22;1640;48.504;9.224;2023-08-06T14:18:45;17.40;28.20
3256;DHT22;1640;48.504;9.224;2023-08-06T14:21:12;17.50;40.60
3256;DHT22;1640;48.504;9.224;2023-08-06T14:23:41;17.60;43.00
3256;DHT22;1640;48.504;9.224;2023-08-06T14:26:09;17.80;47.40
3256;DHT22;1640;48.504;9.224;2023-08-06T14:28:37;17.90;50.90
3256;DHT22;1640;48.504;9.224;2023-08-06T14:31:04;17.90;48.70
3256;DHT22;1640;48.504;9.224;2023-08-06T14:33:32;17.60;43.70
3256;DHT22;1640;48.504;9.224;2023-08-06T14:36:00;17.50;44.50
3256;DHT22;1640;48.504;9.224;2023-08-06T14:38:28;17.00;28.60
3256;DHT22;1640;48.504;9.224;2023-08-06T14:40:57;16.30;99.90
3256;DHT22;1640;48.504;9.224;2023-08-06T14:43:25;15.70;99.90
3256;DHT22;1640;48.504;9.224;2023-08-06T14:45:52;15.50;99.90
3256;DHT22;1640;48.504;9.224;2023-08-06T14:48:20;15.50;99.90
3256;DHT22;1640;48.504;9.224;2023-08-06T14:50:47;15.40;99.90
3256;DHT22;1640;48.504;9.224;2023-08-06T14:53:15;15.20;99.90
3256;DHT22;1640;48.504;9.224;2023-08-06T14:55:42;15.30;99.90
3256;DHT22;1640;48.504;9.224;2023-08-06T14:58:11;15.30;99.90
3256;DHT22;1640;48.504;9.224;2023-08-06T15:00:39;15.50;99.90
3256;DHT22;1640;48.504;9.224;2023-08-06T15:03:06;15.80;99.90
3256;DHT22;1640;48.504;9.224;2023-08-06T15:05:34;16.30;19.30
3256;DHT22;1640;48.504;9.224;2023-08-06T15:08:01;17.10;41.00
3256;DHT22;1640;48.504;9.224;2023-08-06T15:10:29;17.80;57.00
3256;DHT22;1640;48.504;9.224;2023-08-06T15:12:56;17.80;56.50
3256;DHT22;1640;48.504;9.224;2023-08-06T15:15:26;17.80;52.70
3256;DHT22;1640;48.504;9.224;2023-08-06T15:17:54;17.80;47.80
3256;DHT22;1640;48.504;9.224;2023-08-06T15:20:22;17.20;42.60
3256;DHT22;1640;48.504;9.224;2023-08-06T15:22:50;16.80;33.80
3256;DHT22;1640;48.504;9.224;2023-08-06T15:25:17;16.70;33.50
3256;DHT22;1640;48.504;9.224;2023-08-06T15:27:45;16.50;36.20
3256;DHT22;1640;48.504;9.224;2023-08-06T15:30:12;16.40;33.00
3256;DHT22;1640;48.504;9.224;2023-08-06T15:32:41;16.30;47.90
3256;DHT22;1640;48.504;9.224;2023-08-06T15:35:10;16.30;45.30
3256;DHT22;1640;48.504;9.224;2023-08-06T15:37:38;16.70;49.90
3256;DHT22;1640;48.504;9.224;2023-08-06T15:40:06;16.70;52.10
3256;DHT22;1640;48.504;9.224;2023-08-06T15:42:34;16.70;52.40
3256;DHT22;1640;48.504;9.224;2023-08-06T15:45:01;16.70;55.60
3256;DHT22;1640;48.504;9.224;2023-08-06T15:47:29;16.80;60.10
3256;DHT22;1640;48.504;9.224;2023-08-06T15:49:58;16.80;57.40
3256;DHT22;1640;48.504;9.224;2023-08-06T15:52:26;17.00;62.60
3256;DHT22;1640;48.504;9.224;2023-08-06T15:54:56;17.20;66.90
3256;DHT22;1640;48.504;9.224;2023-08-06T15:57:29;17.50;66.30
3256;DHT22;1640;48.504;9.224;2023-08-06T15:59:56;17.40;66.50
3256;DHT22;1640;48.504;9.224;2023-08-06T16:02:24;18.20;71.10
3256;DHT22;1640;48.504;9.224;2023-08-06T16:04:53;18.90;72.50
3256;DHT22;1640;48.504;9.224;2023-08-06T16:07:22;18.60;73.40
3256;DHT22;1640;48.504;9.224;2023-08-06T16:09:50;18.20;73.50